sensor_id;sensor_type;location;lat;lon;timestamp;temperature;humidity
14908;DHT22;7545;52.092;7.006;2023-06-22T00:00:46;21.40;99.90
14908;DHT22;7545;52.092;7.006;2023-06-22T00:03:12;21.30;99.90
14908;DHT22;7545;52.092;7.006;2023-06-22T00:05:37;21.30;99.90
14908;DHT22;7545;52.092;7.006;2023-06-22T00:08:04;21.30;99.90
14908;DHT22;7545;52.092;7.006;2023-06-22T00:10:30;21.20;99.90
14908;DHT22;7545;52.092;7.006;2023-06-22T00:12:56;21.20;99.90
14908;DHT22;7545;52.092;7.006;2023-06-22T00:15:21;21.20;99.90
14908;DHT22;7545;52.092;7.006;2023-06-22T00:17:47;21.10;99.90
14908;DHT22;7545;52.092;7.006;2023-06-22T00:20:13;21.10;99.90
14908;DHT22;7545;52.092;7.006;2023-06-22T00:22:40;21.00;99.90
14908;DHT22;7545;52.092;7.006;2023-06-22T00:25:06;21.00;99.90
14908;DHT22;7545;52.092;7.006;2023-06-22T00:27:32;20.90;99.90
14908;DHT22;7545;52.092;7.006;2023-06-22T00:29:58;20.90;99.90
14908;DHT22;7545;52.092;7.006;2023-06-22T00:32:23;20.90;99.90
14908;DHT22;7545;52.092;7.006;2023-06-22T00:34:49;20.90;99.90
14908;DHT22;7545;52.092;7.006;2023-06-22T00:37:15;20.90;99.90
14908;DHT22;7545;52.092;7.006;2023-06-22T00:39:42;20.80;99.90
14908;DHT22;7545;52.092;7.006;2023-06-22T00:42:08;20.80;99.90
14908;DHT22;7545;52.092;7.006;2023-06-22T00:44:34;20.80;99.90
14908;DHT22;7545;52.092;7.006;2023-06-22T00:47:00;20.80;99.90
14908;DHT22;7545;52.092;7.006;2023-06-22T00:49:26;20.70;99.90
14908;DHT22;7545;52.092;7.006;2023-06-22T00:51:52;20.70;99.90
14908;DHT22;7545;52.092;7.006;2023-06-22T00:54:18;20.70;99.90
14908;DHT22;7545;52.092;7.006;2023-06-22T00:56:53;20.70;99.90
14908;DHT22;7545;52.092;7.006;2023-06-22T00:59:21;20.70;99.90
14908;DHT22;7545;52.092;7.006;2023-06-22T01:01:47;20.70;99.90
14908;DHT22;7545;52.092;7.006;2023-06-22T01:04:12;20.60;99.90
14908;DHT22;7545;52.092;7.006;2023-06-22T01:06:55;20.60;99.90
14908;DHT22;7545;52.092;7.006;2023-06-22T01:09:28;20.60;99.90
14908;DHT22;7545;52.092;7.006;2023-06-22T01:12:07;20.60;99.90
14908;DHT22;7545;52.092;7.006;2023-06-22T01:14:45;20.50;99.90
14908;DHT22;7545;52.092;7.006;2023-06-22T01:17:13;20.50;99.90
14908;DHT22;7545;52.092;7.006;2023-06-22T01:19:47;20.40;99.90
14908;DHT22;7545;52.092;7.006;2023-06-22T01:22:17;20.50;99.90
14908;DHT22;7545;52.092;7.006;2023-06-22T01:30:11;20.50;99.90
14908;DHT22;7545;52.092;7.006;2023-06-22T01:32:40;20.50;99.90
14908;DHT22;7545;52.092;7.006;2023-06-22T01:35:08;20.50;99.90
14908;DHT22;7545;52.092;7.006;2023-06-22T01:37:36;20.40;99.90
14908;DHT22;7545;52.092;7.006;2023-06-22T01:40:03;20.40;99.90
14908;DHT22;7545;52.092;7.006;2023-06-22T01:42:31;20.40;99.90
14908;DHT22;7545;52.092;7.006;2023-06-22T01:44:58;20.40;99.90
14908;DHT22;7545;52.092;7.006;2023-06-22T01:47:25;20.40;99.90
14908;DHT22;7545;52.092;7.006;2023-06-22T01:49:51;20.40;99.90
14908;DHT22;7545;52.092;7.006;2023-06-22T01:52:18;20.40;99.90
14908;DHT22;7545;52.092;7.006;2023-06-22T01:54:44;20.40;99.90
14908;DHT22;7545;52.092;7.006;2023-06-22T01:57:10;20.40;99.90
14908;DHT22;7545;52.092;7.006;2023-06-22T02:00:00;20.40;99.90
14908;DHT22;7545;52.092;7.006;2023-06-22T02:02:29;20.30;99.90
14908;DHT22;7545;52.092;7.006;2023-06-22T02:05:03;20.30;99.90
14908;DHT22;7545;52.092;7.006;2023-06-22T02:07:33;20.30;99.90
14908;DHT22;7545;52.092;7.006;2023-06-22T02:10:01;20.30;99.90
14908;DHT22;7545;52.092;7.006;2023-06-22T02:12:28;20.30;99.90
14908;DHT22;7545;52.092;7.006;2023-06-22T02:14:54;20.30;99.90
14908;DHT22;7545;52.092;7.006;2023-06-22T02:17:21;20.30;99.90
14908;DHT22;7545;52.092;7.006;2023-06-22T02:19:47;20.30;99.90
14908;DHT22;7545;52.092;7.006;2023-06-22T02:22:12;20.20;99.90
14908;DHT22;7545;52.092;7.006;2023-06-22T02:24:39;20.20;99.90
14908;DHT22;7545;52.092;7.006;2023-06-22T02:27:05;20.20;99.90
14908;DHT22;7545;52.092;7.006;2023-06-22T02:29:32;20.30;99.90
14908;DHT22;7545;52.092;7.006;2023-06-22T02:31:58;20.20;99.90
14908;DHT22;7545;52.092;7.006;2023-06-22T02:34:24;20.20;99.90
14908;DHT22;7545;52.092;7.006;2023-06-22T02:36:49;20.20;99.90
14908;DHT22;7545;52.092;7.006;2023-06-22T02:39:24;20.20;99.90
14908;DHT22;7545;52.092;7.006;2023-06-22T02:41:54;20.20;99.90
14908;DHT22;7545;52.092;7.006;2023-06-22T02:44:20;20.20;99.90
14908;DHT22;7545;52.092;7.006;2023-06-22T02:46:47;20.20;99.90
14908;DHT22;7545;52.092;7.006;2023-06-22T02:49:12;20.20;99.90
14908;DHT22;7545;52.092;7.006;2023-06-22T02:51:45;20.10;99.90
14908;DHT22;7545;52.092;7.006;2023-06-22T02:54:11;20.10;99.90
14908;DHT22;7545;52.092;7.006;2023-06-22T02:56:37;20.10;99.90
14908;DHT22;7545;52.092;7.006;2023-06-22T02:59:03;20.10;99.90
14908;DHT22;7545;52.092;7.006;2023-06-22T03:01:29;20.00;99.90
14908;DHT22;7545;52.092;7.006;2023-06-22T03:03:56;20.10;99.90
14908;DHT22;7545;52.092;7.006;2023-06-22T03:06:22;20.10;99.90
14908;DHT22;7545;52.092;7.006;2023-06-22T03:08:49;20.00;99.90
14908;DHT22;7545;52.092;7.006;2023-06-22T03:11:15;20.10;99.90
14908;DHT22;7545;52.092;7.006;2023-06-22T03:13:40;20.00;99.90
14908;DHT22;7545;52.092;7.006;2023-06-22T03:16:06;20.00;99.90
14908;DHT22;7545;52.092;7.006;2023-06-22T03:18:31;20.00;99.90
14908;DHT22;7545;52.092;7.006;2023-06-22T03:20:57;20.00;99.90
14908;DHT22;7545;52.092;7.006;2023-06-22T03:23:22;20.00;99.90
14908;DHT22;7545;52.092;7.006;2023-06-22T03:25:48;20.00;99.90
14908;DHT22;7545;52.092;7.006;2023-06-22T03:28:14;20.00;99.90
14908;DHT22;7545;52.092;7.006;2023-06-22T03:30:39;20.00;99.90
14908;DHT22;7545;52.092;7.006;2023-06-22T03:33:05;20.00;99.90
14908;DHT22;7545;52.092;7.006;2023-06-22T03:35:30;20.00;99.90
14908;DHT22;7545;52.092;7.006;2023-06-22T03:37:56;19.90;99.90
14908;DHT22;7545;52.092;7.006;2023-06-22T03:40:22;19.90;99.90
14908;DHT22;7545;52.092;7.006;2023-06-22T03:42:48;19.90;99.90
14908;DHT22;7545;52.092;7.006;2023-06-22T03:45:13;19.90;99.90
14908;DHT22;7545;52.092;7.006;2023-06-22T03:47:39;19.90;99.90
14908;DHT22;7545;52.092;7.006;2023-06-22T03:50:05;19.90;99.90
14908;DHT22;7545;52.092;7.006;2023-06-22T03:52:31;19.90;99.90
14908;DHT22;7545;52.092;7.006;2023-06-22T03:54:57;19.90;99.90
14908;DHT22;7545;52.092;7.006;2023-06-22T03:57:23;19.90;99.90
14908;DHT22;7545;52.092;7.006;2023-06-22T03:59:49;19.90;99.90
14908;DHT22;7545;52.092;7.006;2023-06-22T04:02:14;19.90;99.90
14908;DHT22;7545;52.092;7.006;2023-06-22T04:04:40;19.90;99.90
14908;DHT22;7545;52.092;7.006;2023-06-22T04:07:05;19.90;99.90
14908;DHT22;7545;52.092;7.006;2023-06-22T04:09:31;19.90;99.90
14908;DHT22;7545;52.092;7.006;2023-06-22T04:11:57;19.90;99.90
14908;DHT22;7545;52.092;7.006;2023-06-22T04:14:22;19.90;99.90
14908;DHT22;7545;52.092;7.006;2023-06-22T04:16:48;19.90;99.90
14908;DHT22;7545;52.092;7.006;2023-06-22T04:19:13;19.90;99.90
14908;DHT22;7545;52.092;7.006;2023-06-22T04:21:44;19.90;99.90
14908;DHT22;7545;52.092;7.006;2023-06-22T04:24:11;20.00;99.90
14908;DHT22;7545;52.092;7.006;2023-06-22T04:26:37;20.00;99.90
14908;DHT22;7545;52.092;7.006;2023-06-22T04:29:03;20.00;99.90
14908;DHT22;7545;52.092;7.006;2023-06-22T04:31:31;20.00;99.90
14908;DHT22;7545;52.092;7.006;2023-06-22T04:33:58;20.00;99.90
14908;DHT22;7545;52.092;7.006;2023-06-22T04:36:31;20.10;99.90
14908;DHT22;7545;52.092;7.006;2023-06-22T04:39:06;20.00;99.90
14908;DHT22;7545;52.092;7.006;2023-06-22T04:41:32;20.10;99.90
14908;DHT22;7545;52.092;7.006;2023-06-22T04:44:14;20.10;99.90
14908;DHT22;7545;52.092;7.006;2023-06-22T04:47:01;20.10;99.90
14908;DHT22;7545;52.092;7.006;2023-06-22T04:49:29;20.10;99.90
14908;DHT22;7545;52.092;7.006;2023-06-22T04:52:08;20.10;99.90
14908;DHT22;7545;52.092;7.006;2023-06-22T04:54:34;20.10;99.90
14908;DHT22;7545;52.092;7.006;2023-06-22T04:57:06;20.10;99.90
14908;DHT22;7545;52.092;7.006;2023-06-22T04:59:35;20.10;99.90
14908;DHT22;7545;52.092;7.006;2023-06-22T05:02:02;20.20;99.90
14908;DHT22;7545;52.092;7.006;2023-06-22T05:04:29;20.10;99.90
14908;DHT22;7545;52.092;7.006;2023-06-22T05:06:57;20.20;99.90
14908;DHT22;7545;52.092;7.006;2023-06-22T05:09:24;20.10;99.90
14908;DHT22;7545;52.092;7.006;2023-06-22T05:11:50;20.10;99.90
14908;DHT22;7545;52.092;7.006;2023-06-22T05:14:16;20.20;99.90
14908;DHT22;7545;52.092;7.006;2023-06-22T05:16:42;20.20;99.90
14908;DHT22;7545;52.092;7.006;2023-06-22T05:19:08;20.20;99.90
14908;DHT22;7545;52.092;7.006;2023-06-22T05:21:34;20.20;99.90
14908;DHT22;7545;52.092;7.006;2023-06-22T05:24:00;20.30;99.90
14908;DHT22;7545;52.092;7.006;2023-06-22T05:26:29;20.20;99.90
14908;DHT22;7545;52.092;7.006;2023-06-22T05:28:55;20.30;99.90
14908;DHT22;7545;52.092;7.006;2023-06-22T05:31:20;20.30;99.90
14908;DHT22;7545;52.092;7.006;2023-06-22T05:33:47;20.40;99.90
14908;DHT22;7545;52.092;7.006;2023-06-22T05:36:13;20.40;99.90
14908;DHT22;7545;52.092;7.006;2023-06-22T05:38:39;20.40;99.90
14908;DHT22;7545;52.092;7.006;2023-06-22T05:41:05;20.40;99.90
14908;DHT22;7545;52.092;7.006;2023-06-22T05:43:31;20.50;99.90
14908;DHT22;7545;52.092;7.006;2023-06-22T05:45:57;20.40;99.90
14908;DHT22;7545;52.092;7.006;2023-06-22T05:48:23;20.50;99.90
14908;DHT22;7545;52.092;7.006;2023-06-22T05:50:49;20.50;99.90
14908;DHT22;7545;52.092;7.006;2023-06-22T05:53:15;20.50;99.90
14908;DHT22;7545;52.092;7.006;2023-06-22T05:55:40;20.50;99.90
14908;DHT22;7545;52.092;7.006;2023-06-22T05:58:06;20.50;99.90
14908;DHT22;7545;52.092;7.006;2023-06-22T06:00:32;20.60;99.90
14908;DHT22;7545;52.092;7.006;2023-06-22T06:02:57;20.60;99.90
14908;DHT22;7545;52.092;7.006;2023-06-22T06:05:29;20.70;99.90
14908;DHT22;7545;52.092;7.006;2023-06-22T06:07:55;20.80;99.90
14908;DHT22;7545;52.092;7.006;2023-06-22T06:10:21;20.80;99.90
14908;DHT22;7545;52.092;7.006;2023-06-22T06:12:46;20.80;99.90
14908;DHT22;7545;52.092;7.006;2023-06-22T06:15:12;20.90;99.90
14908;DHT22;7545;52.092;7.006;2023-06-22T06:17:51;20.90;99.90
14908;DHT22;7545;52.092;7.006;2023-06-22T06:20:19;21.00;99.90
14908;DHT22;7545;52.092;7.006;2023-06-22T06:22:45;21.00;99.90
14908;DHT22;7545;52.092;7.006;2023-06-22T06:25:11;21.00;99.90
14908;DHT22;7545;52.092;7.006;2023-06-22T06:27:44;21.00;99.90
14908;DHT22;7545;52.092;7.006;2023-06-22T06:30:15;21.10;99.90
14908;DHT22;7545;52.092;7.006;2023-06-22T06:32:42;21.20;99.90
14908;DHT22;7545;52.092;7.006;2023-06-22T06:35:09;21.10;99.90
14908;DHT22;7545;52.092;7.006;2023-06-22T06:37:42;21.10;99.90
14908;DHT22;7545;52.092;7.006;2023-06-22T06:40:10;21.20;99.90
14908;DHT22;7545;52.092;7.006;2023-06-22T06:42:41;21.20;99.90
14908;DHT22;7545;52.092;7.006;2023-06-22T06:45:16;21.20;99.90
14908;DHT22;7545;52.092;7.006;2023-06-22T06:47:42;21.30;99.90
14908;DHT22;7545;52.092;7.006;2023-06-22T06:50:08;21.30;99.90
14908;DHT22;7545;52.092;7.006;2023-06-22T06:52:35;21.30;99.90
14908;DHT22;7545;52.092;7.006;2023-06-22T06:55:01;21.40;99.90
14908;DHT22;7545;52.092;7.006;2023-06-22T06:57:26;21.40;99.90
14908;DHT22;7545;52.092;7.006;2023-06-22T06:59:56;21.40;99.90
14908;DHT22;7545;52.092;7.006;2023-06-22T07:02:23;21.50;99.90
14908;DHT22;7545;52.092;7.006;2023-06-22T07:04:48;21.50;99.90
14908;DHT22;7545;52.092;7.006;2023-06-22T07:07:14;21.60;99.90
14908;DHT22;7545;52.092;7.006;2023-06-22T07:09:40;21.60;99.90
14908;DHT22;7545;52.092;7.006;2023-06-22T07:12:06;21.70;99.90
14908;DHT22;7545;52.092;7.006;2023-06-22T07:14:31;21.70;99.90
14908;DHT22;7545;52.092;7.006;2023-06-22T07:16:58;21.80;99.90
14908;DHT22;7545;52.092;7.006;2023-06-22T07:19:29;21.90;99.90
14908;DHT22;7545;52.092;7.006;2023-06-22T07:21:56;21.90;99.90
14908;DHT22;7545;52.092;7.006;2023-06-22T07:24:22;22.00;99.90
14908;DHT22;7545;52.092;7.006;2023-06-22T07:26:49;22.00;99.90
14908;DHT22;7545;52.092;7.006;2023-06-22T07:29:19;22.00;99.90
14908;DHT22;7545;52.092;7.006;2023-06-22T07:31:46;22.10;99.90
14908;DHT22;7545;52.092;7.006;2023-06-22T07:34:13;22.10;99.90
14908;DHT22;7545;52.092;7.006;2023-06-22T07:36:38;22.20;99.90
14908;DHT22;7545;52.092;7.006;2023-06-22T07:39:04;22.20;99.90
14908;DHT22;7545;52.092;7.006;2023-06-22T07:41:30;22.30;99.90
14908;DHT22;7545;52.092;7.006;2023-06-22T07:43:56;22.30;99.90
14908;DHT22;7545;52.092;7.006;2023-06-22T07:46:22;22.30;99.90
14908;DHT22;7545;52.092;7.006;2023-06-22T07:48:48;22.40;99.90
14908;DHT22;7545;52.092;7.006;2023-06-22T07:51:13;22.40;99.90
14908;DHT22;7545;52.092;7.006;2023-06-22T07:53:42;22.50;99.90
14908;DHT22;7545;52.092;7.006;2023-06-22T07:56:10;22.60;99.90
14908;DHT22;7545;52.092;7.006;2023-06-22T07:58:36;22.60;99.90
14908;DHT22;7545;52.092;7.006;2023-06-22T08:01:02;22.70;99.90
14908;DHT22;7545;52.092;7.006;2023-06-22T08:03:28;22.70;99.90
14908;DHT22;7545;52.092;7.006;2023-06-22T08:05:53;22.70;99.90
14908;DHT22;7545;52.092;7.006;2023-06-22T08:08:19;22.80;99.90
14908;DHT22;7545;52.092;7.006;2023-06-22T08:10:44;22.80;99.90
14908;DHT22;7545;52.092;7.006;2023-06-22T08:13:10;22.80;99.90
14908;DHT22;7545;52.092;7.006;2023-06-22T08:15:36;22.80;99.90
14908;DHT22;7545;52.092;7.006;2023-06-22T08:18:02;22.80;99.90
14908;DHT22;7545;52.092;7.006;2023-06-22T08:20:27;22.80;99.90
14908;DHT22;7545;52.092;7.006;2023-06-22T08:22:56;22.80;99.90
14908;DHT22;7545;52.092;7.006;2023-06-22T08:25:23;22.80;99.90
14908;DHT22;7545;52.092;7.006;2023-06-22T08:27:49;22.80;99.90
14908;DHT22;7545;52.092;7.006;2023-06-22T08:30:15;22.80;99.90
14908;DHT22;7545;52.092;7.006;2023-06-22T08:32:41;22.80;99.90
14908;DHT22;7545;52.092;7.006;2023-06-22T08:35:07;22.90;99.90
14908;DHT22;7545;52.092;7.006;2023-06-22T08:37:34;22.90;99.90
14908;DHT22;7545;52.092;7.006;2023-06-22T08:40:02;22.90;99.90
14908;DHT22;7545;52.092;7.006;2023-06-22T08:42:33;22.90;99.90
14908;DHT22;7545;52.092;7.006;2023-06-22T08:44:58;23.00;99.90
14908;DHT22;7545;52.092;7.006;2023-06-22T08:47:24;23.00;99.90
14908;DHT22;7545;52.092;7.006;2023-06-22T08:49:50;23.00;99.90
14908;DHT22;7545;52.092;7.006;2023-06-22T08:52:17;23.10;99.90
14908;DHT22;7545;52.092;7.006;2023-06-22T08:54:44;23.20;99.90
14908;DHT22;7545;52.092;7.006;2023-06-22T08:57:10;23.20;99.90
14908;DHT22;7545;52.092;7.006;2023-06-22T08:59:35;23.30;99.90
14908;DHT22;7545;52.092;7.006;2023-06-22T09:02:01;23.40;99.90
14908;DHT22;7545;52.092;7.006;2023-06-22T09:04:26;23.50;99.90
14908;DHT22;7545;52.092;7.006;2023-06-22T09:06:52;23.60;99.90
14908;DHT22;7545;52.092;7.006;2023-06-22T09:09:18;23.70;99.90
14908;DHT22;7545;52.092;7.006;2023-06-22T09:11:44;23.80;99.90
14908;DHT22;7545;52.092;7.006;2023-06-22T09:14:10;23.80;99.90
14908;DHT22;7545;52.092;7.006;2023-06-22T09:16:36;23.90;99.90
14908;DHT22;7545;52.092;7.006;2023-06-22T09:19:02;23.90;99.90
14908;DHT22;7545;52.092;7.006;2023-06-22T09:21:28;23.90;99.90
14908;DHT22;7545;52.092;7.006;2023-06-22T09:23:54;23.90;99.90
14908;DHT22;7545;52.092;7.006;2023-06-22T09:26:20;23.90;99.90
14908;DHT22;7545;52.092;7.006;2023-06-22T09:28:46;23.90;99.90
14908;DHT22;7545;52.092;7.006;2023-06-22T09:31:12;23.90;99.90
14908;DHT22;7545;52.092;7.006;2023-06-22T09:33:39;23.90;99.90
14908;DHT22;7545;52.092;7.006;2023-06-22T09:36:06;23.90;99.90
14908;DHT22;7545;52.092;7.006;2023-06-22T09:38:37;23.90;99.90
14908;DHT22;7545;52.092;7.006;2023-06-22T09:41:03;23.90;99.90
14908;DHT22;7545;52.092;7.006;2023-06-22T09:43:31;23.90;99.90
14908;DHT22;7545;52.092;7.006;2023-06-22T09:45:56;23.90;99.90
14908;DHT22;7545;52.092;7.006;2023-06-22T09:48:22;24.00;99.90
14908;DHT22;7545;52.092;7.006;2023-06-22T09:50:48;24.10;99.90
14908;DHT22;7545;52.092;7.006;2023-06-22T09:53:13;24.10;99.90
14908;DHT22;7545;52.092;7.006;2023-06-22T09:55:39;24.10;99.90
14908;DHT22;7545;52.092;7.006;2023-06-22T09:58:11;24.00;99.90
14908;DHT22;7545;52.092;7.006;2023-06-22T10:00:36;24.00;99.90
14908;DHT22;7545;52.092;7.006;2023-06-22T10:03:02;24.00;99.90
14908;DHT22;7545;52.092;7.006;2023-06-22T10:05:27;24.10;99.90
14908;DHT22;7545;52.092;7.006;2023-06-22T10:07:54;24.10;99.90
14908;DHT22;7545;52.092;7.006;2023-06-22T10:10:20;24.10;99.90
14908;DHT22;7545;52.092;7.006;2023-06-22T10:12:47;24.10;99.90
14908;DHT22;7545;52.092;7.006;2023-06-22T10:15:14;24.10;99.90
14908;DHT22;7545;52.092;7.006;2023-06-22T10:17:40;24.10;99.90
14908;DHT22;7545;52.092;7.006;2023-06-22T10:20:08;24.10;99.90
14908;DHT22;7545;52.092;7.006;2023-06-22T10:22:42;24.10;99.90
14908;DHT22;7545;52.092;7.006;2023-06-22T10:25:09;24.10;99.90
14908;DHT22;7545;52.092;7.006;2023-06-22T10:27:35;24.10;99.90
14908;DHT22;7545;52.092;7.006;2023-06-22T10:30:00;24.20;99.90
14908;DHT22;7545;52.092;7.006;2023-06-22T10:32:26;24.10;99.90
14908;DHT22;7545;52.092;7.006;2023-06-22T10:34:53;24.20;99.90
14908;DHT22;7545;52.092;7.006;2023-06-22T10:37:19;24.20;99.90
14908;DHT22;7545;52.092;7.006;2023-06-22T10:39:44;24.20;99.90
14908;DHT22;7545;52.092;7.006;2023-06-22T10:42:10;24.10;99.90
14908;DHT22;7545;52.092;7.006;2023-06-22T10:44:35;24.10;99.90
14908;DHT22;7545;52.092;7.006;2023-06-22T10:47:01;24.10;99.90
14908;DHT22;7545;52.092;7.006;2023-06-22T10:49:26;24.10;99.90
14908;DHT22;7545;52.092;7.006;2023-06-22T10:51:52;24.10;99.90
14908;DHT22;7545;52.092;7.006;2023-06-22T10:54:17;24.10;99.90
14908;DHT22;7545;52.092;7.006;2023-06-22T10:56:44;24.10;99.90
14908;DHT22;7545;52.092;7.006;2023-06-22T10:59:10;24.10;99.90
14908;DHT22;7545;52.092;7.006;2023-06-22T11:01:36;24.10;99.90
14908;DHT22;7545;52.092;7.006;2023-06-22T11:04:02;24.10;99.90
14908;DHT22;7545;52.092;7.006;2023-06-22T11:06:28;24.10;99.90
14908;DHT22;7545;52.092;7.006;2023-06-22T11:08:54;24.10;99.90
14908;DHT22;7545;52.092;7.006;2023-06-22T11:11:19;24.10;99.90
14908;DHT22;7545;52.092;7.006;2023-06-22T11:13:45;24.10;99.90
14908;DHT22;7545;52.092;7.006;2023-06-22T11:16:10;24.10;99.90
14908;DHT22;7545;52.092;7.006;2023-06-22T11:18:36;24.10;99.90
14908;DHT22;7545;52.092;7.006;2023-06-22T11:21:02;24.10;99.90
14908;DHT22;7545;52.092;7.006;2023-06-22T11:23:28;24.00;99.90
14908;DHT22;7545;52.092;7.006;2023-06-22T11:25:54;24.00;99.90
14908;DHT22;7545;52.092;7.006;2023-06-22T11:28:20;24.10;99.90
14908;DHT22;7545;52.092;7.006;2023-06-22T11:30:45;24.00;99.90
14908;DHT22;7545;52.092;7.006;2023-06-22T11:33:14;24.10;99.90
14908;DHT22;7545;52.092;7.006;2023-06-22T11:35:39;24.10;99.90
14908;DHT22;7545;52.092;7.006;2023-06-22T11:38:05;24.10;99.90
14908;DHT22;7545;52.092;7.006;2023-06-22T11:40:31;24.10;99.90
14908;DHT22;7545;52.092;7.006;2023-06-22T11:42:56;24.10;99.90
14908;DHT22;7545;52.092;7.006;2023-06-22T11:45:22;24.00;99.90
14908;DHT22;7545;52.092;7.006;2023-06-22T11:47:48;24.00;99.90
14908;DHT22;7545;52.092;7.006;2023-06-22T11:50:13;24.00;99.90
14908;DHT22;7545;52.092;7.006;2023-06-22T11:52:39;24.00;99.90
14908;DHT22;7545;52.092;7.006;2023-06-22T11:55:05;23.90;99.90
14908;DHT22;7545;52.092;7.006;2023-06-22T11:57:36;23.90;99.90
14908;DHT22;7545;52.092;7.006;2023-06-22T12:00:03;23.80;99.90
14908;DHT22;7545;52.092;7.006;2023-06-22T12:02:52;23.80;99.90
14908;DHT22;7545;52.092;7.006;2023-06-22T12:05:21;23.80;99.90
14908;DHT22;7545;52.092;7.006;2023-06-22T12:07:48;23.80;99.90
14908;DHT22;7545;52.092;7.006;2023-06-22T12:10:13;23.80;99.90
14908;DHT22;7545;52.092;7.006;2023-06-22T12:12:42;23.70;99.90
14908;DHT22;7545;52.092;7.006;2023-06-22T12:15:09;23.70;99.90
14908;DHT22;7545;52.092;7.006;2023-06-22T12:17:35;23.70;99.90
14908;DHT22;7545;52.092;7.006;2023-06-22T12:20:01;23.70;99.90
14908;DHT22;7545;52.092;7.006;2023-06-22T12:22:27;23.60;99.90
14908;DHT22;7545;52.092;7.006;2023-06-22T12:24:53;23.60;99.90
14908;DHT22;7545;52.092;7.006;2023-06-22T12:27:19;23.60;99.90
14908;DHT22;7545;52.092;7.006;2023-06-22T12:29:47;23.60;99.90
14908;DHT22;7545;52.092;7.006;2023-06-22T12:32:13;23.50;99.90
14908;DHT22;7545;52.092;7.006;2023-06-22T12:34:40;23.50;99.90
14908;DHT22;7545;52.092;7.006;2023-06-22T12:37:05;23.50;99.90
14908;DHT22;7545;52.092;7.006;2023-06-22T12:39:32;23.50;99.90
14908;DHT22;7545;52.092;7.006;2023-06-22T12:41:58;23.50;99.90
14908;DHT22;7545;52.092;7.006;2023-06-22T12:44:23;23.50;99.90
14908;DHT22;7545;52.092;7.006;2023-06-22T12:46:49;23.40;99.90
14908;DHT22;7545;52.092;7.006;2023-06-22T12:49:15;23.40;99.90
14908;DHT22;7545;52.092;7.006;2023-06-22T12:51:42;23.30;99.90
14908;DHT22;7545;52.092;7.006;2023-06-22T12:54:07;23.30;99.90
14908;DHT22;7545;52.092;7.006;2023-06-22T12:56:33;23.20;99.90
14908;DHT22;7545;52.092;7.006;2023-06-22T12:58:59;23.20;99.90
14908;DHT22;7545;52.092;7.006;2023-06-22T13:01:28;23.10;99.90
14908;DHT22;7545;52.092;7.006;2023-06-22T13:03:53;23.10;99.90
14908;DHT22;7545;52.092;7.006;2023-06-22T13:06:19;23.00;99.90
14908;DHT22;7545;52.092;7.006;2023-06-22T13:08:45;22.90;99.90
14908;DHT22;7545;52.092;7.006;2023-06-22T13:11:10;22.90;99.90
14908;DHT22;7545;52.092;7.006;2023-06-22T13:13:36;22.80;99.90
14908;DHT22;7545;52.092;7.006;2023-06-22T13:16:02;22.80;99.90
14908;DHT22;7545;52.092;7.006;2023-06-22T13:18:27;22.70;99.90
14908;DHT22;7545;52.092;7.006;2023-06-22T13:20:53;22.70;99.90
14908;DHT22;7545;52.092;7.006;2023-06-22T13:23:20;22.70;99.90
14908;DHT22;7545;52.092;7.006;2023-06-22T13:25:46;22.60;99.90
14908;DHT22;7545;52.092;7.006;2023-06-22T13:28:12;22.60;99.90
14908;DHT22;7545;52.092;7.006;2023-06-22T13:30:40;22.60;99.90
14908;DHT22;7545;52.092;7.006;2023-06-22T13:33:05;22.50;99.90
14908;DHT22;7545;52.092;7.006;2023-06-22T13:35:31;22.40;99.90
14908;DHT22;7545;52.092;7.006;2023-06-22T13:37:57;22.40;99.90
14908;DHT22;7545;52.092;7.006;2023-06-22T13:40:22;22.30;99.90
14908;DHT22;7545;52.092;7.006;2023-06-22T13:42:48;22.30;99.90
14908;DHT22;7545;52.092;7.006;2023-06-22T13:45:14;22.40;99.90
14908;DHT22;7545;52.092;7.006;2023-06-22T13:47:45;22.40;99.90
14908;DHT22;7545;52.092;7.006;2023-06-22T13:50:10;22.50;99.90
14908;DHT22;7545;52.092;7.006;2023-06-22T13:52:38;22.50;99.90
14908;DHT22;7545;52.092;7.006;2023-06-22T13:55:04;22.60;99.90
14908;DHT22;7545;52.092;7.006;2023-06-22T13:57:31;22.60;99.90
14908;DHT22;7545;52.092;7.006;2023-06-22T13:59:56;22.70;99.90
14908;DHT22;7545;52.092;7.006;2023-06-22T14:02:22;22.70;99.90
14908;DHT22;7545;52.092;7.006;2023-06-22T14:04:47;22.80;99.90
14908;DHT22;7545;52.092;7.006;2023-06-22T14:07:13;22.80;99.90
14908;DHT22;7545;52.092;7.006;2023-06-22T14:09:38;22.90;99.90
14908;DHT22;7545;52.092;7.006;2023-06-22T14:12:05;23.00;99.90
14908;DHT22;7545;52.092;7.006;2023-06-22T14:14:32;23.10;99.90
14908;DHT22;7545;52.092;7.006;2023-06-22T14:16:58;23.10;99.90
14908;DHT22;7545;52.092;7.006;2023-06-22T14:19:24;23.10;99.90
14908;DHT22;7545;52.092;7.006;2023-06-22T14:21:50;23.10;99.90
14908;DHT22;7545;52.092;7.006;2023-06-22T14:24:15;23.10;99.90
14908;DHT22;7545;52.092;7.006;2023-06-22T14:26:41;23.10;99.90
14908;DHT22;7545;52.092;7.006;2023-06-22T14:29:06;23.20;99.90
14908;DHT22;7545;52.092;7.006;2023-06-22T14:31:32;23.10;99.90
14908;DHT22;7545;52.092;7.006;2023-06-22T14:33:58;23.20;99.90
14908;DHT22;7545;52.092;7.006;2023-06-22T14:36:23;23.20;99.90
14908;DHT22;7545;52.092;7.006;2023-06-22T14:38:49;23.20;99.90
14908;DHT22;7545;52.092;7.006;2023-06-22T14:41:15;23.20;99.90
14908;DHT22;7545;52.092;7.006;2023-06-22T14:43:49;23.20;99.90
14908;DHT22;7545;52.092;7.006;2023-06-22T14:46:18;23.20;99.90
14908;DHT22;7545;52.092;7.006;2023-06-22T14:48:44;23.20;99.90
14908;DHT22;7545;52.092;7.006;2023-06-22T14:51:10;23.20;99.90
14908;DHT22;7545;52.092;7.006;2023-06-22T14:53:36;23.20;99.90
14908;DHT22;7545;52.092;7.006;2023-06-22T14:56:03;23.20;99.90
14908;DHT22;7545;52.092;7.006;2023-06-22T14:58:31;23.20;99.90
14908;DHT22;7545;52.092;7.006;2023-06-22T15:01:02;23.30;99.90
14908;DHT22;7545;52.092;7.006;2023-06-22T15:03:31;23.30;99.90
14908;DHT22;7545;52.092;7.006;2023-06-22T15:05:58;23.40;99.90
14908;DHT22;7545;52.092;7.006;2023-06-22T15:08:24;23.40;99.90
14908;DHT22;7545;52.092;7.006;2023-06-22T15:10:51;23.40;99.90
14908;DHT22;7545;52.092;7.006;2023-06-22T15:13:17;23.30;99.90
14908;DHT22;7545;52.092;7.006;2023-06-22T15:15:43;23.30;99.90
14908;DHT22;7545;52.092;7.006;2023-06-22T15:18:09;23.20;99.90
14908;DHT22;7545;52.092;7.006;2023-06-22T15:20:34;23.20;99.90
14908;DHT22;7545;52.092;7.006;2023-06-22T15:23:00;23.10;99.90
14908;DHT22;7545;52.092;7.006;2023-06-22T15:25:25;23.10;99.90
14908;DHT22;7545;52.092;7.006;2023-06-22T15:27:51;23.00;99.90
14908;DHT22;7545;52.092;7.006;2023-06-22T15:30:17;23.00;99.90
14908;DHT22;7545;52.092;7.006;2023-06-22T15:32:43;23.10;99.90
14908;DHT22;7545;52.092;7.006;2023-06-22T15:35:13;23.00;99.90
14908;DHT22;7545;52.092;7.006;2023-06-22T15:37:39;23.00;99.90
14908;DHT22;7545;52.092;7.006;2023-06-22T15:40:06;23.00;99.90
14908;DHT22;7545;52.092;7.006;2023-06-22T15:42:32;22.90;99.90
14908;DHT22;7545;52.092;7.006;2023-06-22T15:44:57;22.90;99.90
14908;DHT22;7545;52.092;7.006;2023-06-22T15:47:23;22.90;99.90